createdAt,value
2023-01-22T00:00:04.427Z,8.70
2023-01-22T00:02:30.935Z,9.47
2023-01-22T00:04:57.447Z,8.83
2023-01-22T00:07:23.992Z,8.70
2023-01-22T00:09:50.521Z,9.40
2023-01-22T00:12:17.119Z,8.93
2023-01-22T00:14:43.770Z,8.90
2023-01-22T00:17:10.711Z,8.73
2023-01-22T00:19:37.323Z,9.10
2023-01-22T00:22:03.734Z,9.13
2023-01-22T00:24:30.188Z,8.67
2023-01-22T00:26:56.643Z,8.30
2023-01-22T00:29:23.134Z,7.73
2023-01-22T00:31:49.858Z,6.80
2023-01-22T00:34:16.447Z,8.00
2023-01-22T00:36:43.034Z,7.73
2023-01-22T00:39:10.230Z,8.43
2023-01-22T00:41:36.847Z,8.20
2023-01-22T00:44:03.582Z,8.00
2023-01-22T00:46:30.070Z,7.90
2023-01-22T00:48:56.693Z,8.03
2023-01-22T00:51:23.257Z,8.13
2023-01-22T00:53:49.710Z,7.60
2023-01-22T00:56:16.178Z,7.67
2023-01-22T00:58:42.953Z,6.93
2023-01-22T01:01:09.731Z,7.10
2023-01-22T01:03:37.637Z,7.73
2023-01-22T01:06:10.828Z,6.70
2023-01-22T01:08:39.840Z,7.23
2023-01-22T01:11:09.044Z,7.67
2023-01-22T01:13:39.029Z,7.07
2023-01-22T01:16:07.827Z,7.47
2023-01-22T01:18:35.337Z,5.77
2023-01-22T01:21:02.301Z,7.27
2023-01-22T01:23:29.260Z,5.63
2023-01-22T01:25:56.095Z,5.90
2023-01-22T01:28:22.755Z,6.63
2023-01-22T01:30:49.248Z,5.73
2023-01-22T01:33:15.690Z,6.40
2023-01-22T01:35:42.319Z,5.00
2023-01-22T01:38:08.927Z,5.03
2023-01-22T01:40:35.600Z,6.00
2023-01-22T01:43:02.039Z,6.33
2023-01-22T01:45:32.248Z,5.93
2023-01-22T01:48:22.785Z,5.67
2023-01-22T01:50:56.194Z,4.50
2023-01-22T01:53:22.905Z,6.23
2023-01-22T01:55:49.872Z,5.67
2023-01-22T01:58:21.663Z,5.00
2023-01-22T02:00:51.669Z,5.37
2023-01-22T02:03:19.213Z,5.57
2023-01-22T02:05:45.830Z,5.80
2023-01-22T02:08:12.865Z,5.73
2023-01-22T02:10:39.778Z,5.90
2023-01-22T02:13:12.691Z,5.80
2023-01-22T02:15:39.762Z,6.33
2023-01-22T02:18:06.721Z,5.90
2023-01-22T02:20:51.367Z,5.97
2023-01-22T02:23:18.079Z,5.50
2023-01-22T02:25:44.518Z,5.60
2023-01-22T02:28:11.111Z,6.47
2023-01-22T02:30:37.692Z,5.57
2023-01-22T02:33:04.206Z,5.50
2023-01-22T02:35:30.632Z,5.93
2023-01-22T02:37:57.249Z,4.93
2023-01-22T02:40:23.708Z,5.40
2023-01-22T02:42:50.117Z,5.07
2023-01-22T02:45:16.732Z,5.73
2023-01-22T02:47:43.150Z,5.50
2023-01-22T02:50:10.608Z,5.30
2023-01-22T02:52:37.127Z,5.43
2023-01-22T02:55:03.746Z,5.77
2023-01-22T02:57:31.503Z,5.20
2023-01-22T02:59:58.461Z,5.80
2023-01-22T03:02:25.877Z,5.57
2023-01-22T03:05:03.094Z,5.53
2023-01-22T03:07:44.942Z,5.80
2023-01-22T03:10:21.445Z,5.40
2023-01-22T03:13:06.724Z,5.30
2023-01-22T03:15:52.321Z,5.90
2023-01-22T03:18:37.536Z,6.20
2023-01-22T03:21:13.449Z,6.00
2023-01-22T03:23:40.181Z,6.00
2023-01-22T03:26:07.423Z,5.73
2023-01-22T03:28:34.298Z,6.13
2023-01-22T03:31:00.810Z,6.53
2023-01-22T03:33:27.470Z,6.10
2023-01-22T03:35:53.954Z,6.43
2023-01-22T03:38:20.367Z,6.57
2023-01-22T03:40:46.928Z,6.67
2023-01-22T03:43:13.329Z,6.27
2023-01-22T03:45:39.804Z,6.50
2023-01-22T03:48:07.545Z,6.97
2023-01-22T03:50:35.559Z,6.53
2023-01-22T03:53:06.335Z,7.50
2023-01-22T03:55:32.809Z,6.73
2023-01-22T03:57:59.251Z,7.70
2023-01-22T04:00:25.762Z,6.83
2023-01-22T04:02:53.585Z,6.87
2023-01-22T04:05:20.374Z,7.67
2023-01-22T04:07:49.392Z,8.00
2023-01-22T04:10:17.263Z,7.13
2023-01-22T04:12:44.047Z,7.47
2023-01-22T04:15:11.128Z,7.33
2023-01-22T04:17:37.607Z,7.67
2023-01-22T04:20:04.443Z,6.70
2023-01-22T04:22:30.945Z,7.57
2023-01-22T04:24:57.578Z,7.00
2023-01-22T04:27:24.136Z,7.27
2023-01-22T04:29:51.445Z,6.53
2023-01-22T04:32:17.911Z,6.73
2023-01-22T04:34:44.432Z,7.23
2023-01-22T04:37:10.863Z,7.57
2023-01-22T04:39:37.289Z,7.20
2023-01-22T04:42:03.905Z,6.53
2023-01-22T04:44:30.309Z,6.43
2023-01-22T04:46:56.719Z,6.63
2023-01-22T04:49:23.183Z,6.60
2023-01-22T04:51:49.619Z,6.63
2023-01-22T04:54:16.257Z,6.57
2023-01-22T04:56:42.684Z,6.87
2023-01-22T04:59:09.138Z,6.33
2023-01-22T05:01:35.687Z,6.90
2023-01-22T05:04:02.750Z,6.77
2023-01-22T05:06:30.785Z,6.27
2023-01-22T05:08:57.431Z,6.40
2023-01-22T05:11:23.847Z,6.30
2023-01-22T05:13:50.402Z,7.20
2023-01-22T05:16:16.832Z,7.20
2023-01-22T05:18:43.443Z,6.43
2023-01-22T05:21:09.911Z,7.03
2023-01-22T05:23:36.441Z,6.90
2023-01-22T05:26:02.979Z,6.80
2023-01-22T05:28:29.630Z,6.83
2023-01-22T05:30:56.170Z,6.47
2023-01-22T05:33:22.746Z,6.33
2023-01-22T05:35:56.439Z,6.57
2023-01-22T05:38:23.645Z,6.57
2023-01-22T05:40:50.174Z,5.63
2023-01-22T05:43:16.865Z,6.23
2023-01-22T05:45:43.321Z,7.17
2023-01-22T05:48:09.796Z,6.30
2023-01-22T05:50:36.734Z,6.33
2023-01-22T05:53:03.711Z,6.93
2023-01-22T05:55:30.325Z,6.03
2023-01-22T05:57:56.995Z,6.83
2023-01-22T06:00:23.705Z,6.23
2023-01-22T06:02:54.194Z,5.90
2023-01-22T06:05:20.723Z,6.77
2023-01-22T06:07:47.191Z,6.70
2023-01-22T06:10:13.751Z,5.87
2023-01-22T06:12:40.623Z,6.17
2023-01-22T06:15:07.752Z,6.73
2023-01-22T06:17:34.289Z,6.13
2023-01-22T06:20:00.802Z,6.43
2023-01-22T06:22:27.445Z,6.53
2023-01-22T06:24:55.517Z,6.37
2023-01-22T06:27:22.069Z,5.50
2023-01-22T06:29:48.608Z,6.60
2023-01-22T06:32:15.059Z,6.53
2023-01-22T06:34:41.664Z,5.63
2023-01-22T06:37:08.293Z,6.37
2023-01-22T06:39:34.752Z,6.57
2023-01-22T06:42:01.257Z,6.50
2023-01-22T06:44:27.731Z,6.77
2023-01-22T06:46:54.198Z,6.13
2023-01-22T06:49:20.682Z,5.40
2023-01-22T06:51:47.285Z,5.80
2023-01-22T06:54:13.824Z,5.50
2023-01-22T06:56:40.231Z,5.83
2023-01-22T06:59:06.726Z,5.97
2023-01-22T07:01:33.406Z,5.90
2023-01-22T07:04:00.308Z,6.30
2023-01-22T07:06:26.809Z,6.80
2023-01-22T07:08:54.173Z,5.37
2023-01-22T07:11:20.720Z,6.80
2023-01-22T07:13:47.172Z,5.93
2023-01-22T07:16:13.673Z,6.10
2023-01-22T07:18:40.147Z,6.00
2023-01-22T07:21:06.828Z,6.07
2023-01-22T07:23:33.640Z,6.50
2023-01-22T07:26:00.276Z,6.57
2023-01-22T07:28:26.930Z,6.20
2023-01-22T07:30:53.442Z,6.47
2023-01-22T07:33:20.034Z,6.60
2023-01-22T07:35:54.399Z,5.83
2023-01-22T07:38:20.948Z,6.37
2023-01-22T07:40:47.647Z,6.13
2023-01-22T07:43:15.217Z,6.13
2023-01-22T07:45:41.869Z,6.10
2023-01-22T07:48:10.904Z,6.53
2023-01-22T07:50:40.214Z,6.10
2023-01-22T07:53:07.792Z,6.67
2023-01-22T07:55:34.326Z,6.13
2023-01-22T07:58:06.283Z,6.00
2023-01-22T08:00:35.239Z,6.07
2023-01-22T08:03:04.375Z,6.20
2023-01-22T08:05:30.820Z,5.83
2023-01-22T08:07:57.856Z,6.80
2023-01-22T08:10:24.555Z,5.90
2023-01-22T08:12:51.021Z,6.33
2023-01-22T08:15:17.749Z,6.27
2023-01-22T08:17:44.310Z,6.77
2023-01-22T08:20:11.216Z,5.53
2023-01-22T08:22:38.129Z,5.93
2023-01-22T08:25:04.993Z,6.47
2023-01-22T08:27:31.680Z,6.20
2023-01-22T08:29:58.164Z,6.73
2023-01-22T08:32:24.755Z,5.83
2023-01-22T08:34:54.151Z,5.97
2023-01-22T08:37:22.261Z,6.30
2023-01-22T08:39:48.724Z,5.83
2023-01-22T08:42:15.963Z,5.57
2023-01-22T08:44:42.454Z,5.70
2023-01-22T08:47:10.863Z,6.43
2023-01-22T08:49:37.460Z,5.10
2023-01-22T08:52:03.997Z,5.93
2023-01-22T08:54:30.486Z,5.50
2023-01-22T08:56:56.901Z,5.30
2023-01-22T08:59:23.459Z,5.83
2023-01-22T09:01:49.981Z,4.73
2023-01-22T09:04:16.624Z,5.63
2023-01-22T09:06:43.187Z,5.50
2023-01-22T09:09:09.730Z,4.73
2023-01-22T09:11:36.214Z,5.77
2023-01-22T09:14:03.713Z,5.67
2023-01-22T09:16:32.988Z,5.50
2023-01-22T09:18:59.758Z,6.27
2023-01-22T09:21:26.303Z,5.47
2023-01-22T09:23:53.740Z,5.50
2023-01-22T09:26:21.150Z,5.17
2023-01-22T09:28:47.758Z,5.37
2023-01-22T09:31:14.952Z,6.07
2023-01-22T09:33:41.821Z,5.77
2023-01-22T09:36:12.539Z,6.00
2023-01-22T09:38:39.134Z,5.93
2023-01-22T09:41:28.721Z,6.07
2023-01-22T09:44:20.426Z,5.97
2023-01-22T09:46:54.413Z,5.60
2023-01-22T09:49:24.415Z,6.30
2023-01-22T09:51:59.726Z,5.23
2023-01-22T09:54:28.437Z,5.80
2023-01-22T09:56:58.113Z,5.53
2023-01-22T09:59:32.799Z,5.67
2023-01-22T10:02:04.351Z,5.27
2023-01-22T10:04:44.407Z,5.93
2023-01-22T10:07:17.875Z,6.13
2023-01-22T10:09:51.313Z,6.60
2023-01-22T10:12:18.217Z,5.90
2023-01-22T10:14:45.275Z,5.77
2023-01-22T10:17:38.215Z,5.50
2023-01-22T10:20:06.458Z,5.60
2023-01-22T10:22:32.968Z,5.97
2023-01-22T10:24:59.698Z,4.83
2023-01-22T10:27:39.486Z,5.80
2023-01-22T10:30:17.259Z,5.90
2023-01-22T10:32:44.059Z,5.60
2023-01-22T10:35:19.337Z,5.97
2023-01-22T10:37:51.947Z,5.57
2023-01-22T10:40:21.745Z,5.50
2023-01-22T10:43:02.899Z,5.13
2023-01-22T10:45:29.862Z,5.17
2023-01-22T10:48:12.168Z,6.53
2023-01-22T10:50:38.786Z,5.80
2023-01-22T10:53:13.840Z,6.27
2023-01-22T10:55:42.102Z,6.13
2023-01-22T10:58:16.046Z,6.00
2023-01-22T11:00:51.797Z,5.80
2023-01-22T11:03:23.293Z,5.67
2023-01-22T11:05:56.154Z,5.77
2023-01-22T11:08:25.561Z,5.67
2023-01-22T11:10:55.627Z,5.77
2023-01-22T11:13:26.026Z,5.43
2023-01-22T11:15:58.181Z,6.30
2023-01-22T11:18:43.130Z,5.30
2023-01-22T11:21:18.932Z,6.17
2023-01-22T11:24:03.584Z,5.70
2023-01-22T11:26:49.641Z,5.57
2023-01-22T11:29:35.028Z,5.43
2023-01-22T11:32:23.447Z,6.03
2023-01-22T11:35:27.832Z,5.43
2023-01-22T11:38:03.011Z,5.20
2023-01-22T11:40:32.492Z,5.43
2023-01-22T11:43:11.551Z,5.77
2023-01-22T11:46:24.078Z,5.77
2023-01-22T11:49:05.755Z,5.97
2023-01-22T11:51:34.961Z,4.50
2023-01-22T11:54:32.971Z,6.73
2023-01-22T11:57:11.693Z,6.10
2023-01-22T12:00:06.033Z,5.63
2023-01-22T12:03:03.533Z,5.57
2023-01-22T12:05:56.325Z,5.70
2023-01-22T12:08:31.842Z,5.50
2023-01-22T12:11:07.693Z,5.10
2023-01-22T12:13:43.262Z,5.07
2023-01-22T12:16:18.706Z,6.30
2023-01-22T12:19:07.216Z,4.77
2023-01-22T12:21:48.869Z,5.73
2023-01-22T12:24:21.360Z,5.20
2023-01-22T12:26:57.051Z,4.80
2023-01-22T12:29:29.404Z,5.53
2023-01-22T12:32:05.439Z,5.50
2023-01-22T12:34:37.646Z,5.20
2023-01-22T12:37:05.408Z,4.83
2023-01-22T12:39:41.598Z,4.83
2023-01-22T12:42:40.383Z,4.87
2023-01-22T12:45:14.039Z,4.57
2023-01-22T12:48:05.346Z,4.67
2023-01-22T12:50:31.772Z,4.60
2023-01-22T12:53:03.662Z,5.00
2023-01-22T12:55:33.303Z,5.80
2023-01-22T12:57:59.785Z,5.67
2023-01-22T13:00:34.840Z,5.33
2023-01-22T13:03:32.259Z,4.80
2023-01-22T13:06:00.504Z,4.87
2023-01-22T13:08:38.988Z,4.97
2023-01-22T13:11:07.209Z,5.90
2023-01-22T13:13:45.135Z,5.10
2023-01-22T13:18:55.133Z,4.60
2023-01-22T13:21:31.179Z,5.00
2023-01-22T13:24:04.453Z,4.80
2023-01-22T13:26:34.810Z,5.40
2023-01-22T13:29:26.709Z,5.60
2023-01-22T13:32:18.181Z,5.17
2023-01-22T13:34:44.633Z,5.10
2023-01-22T13:37:25.006Z,4.83
2023-01-22T13:39:51.650Z,4.50
2023-01-22T13:42:18.764Z,4.77
2023-01-22T13:44:49.103Z,5.40
2023-01-22T13:47:28.209Z,5.37
2023-01-22T13:49:55.183Z,6.17
2023-01-22T13:52:22.356Z,4.90
2023-01-22T13:55:05.839Z,4.87
2023-01-22T13:57:32.531Z,5.90
2023-01-22T14:00:00.737Z,5.17
2023-01-22T14:02:34.726Z,5.60
2023-01-22T14:05:01.793Z,5.83
2023-01-22T14:07:28.434Z,4.73
2023-01-22T14:09:56.287Z,5.53
2023-01-22T14:12:25.860Z,4.77
2023-01-22T14:14:53.539Z,4.93
2023-01-22T14:17:29.425Z,5.40
2023-01-22T14:19:57.212Z,4.67
2023-01-22T14:22:24.523Z,4.20
2023-01-22T14:24:54.833Z,4.77
2023-01-22T14:27:23.380Z,5.20
2023-01-22T14:29:53.172Z,5.77
2023-01-22T14:32:20.184Z,5.17
2023-01-22T14:34:46.962Z,4.60
2023-01-22T14:37:17.592Z,5.17
2023-01-22T14:39:44.141Z,5.13
2023-01-22T14:42:10.544Z,5.10
2023-01-22T14:44:37.078Z,5.00
2023-01-22T14:47:04.221Z,5.57
2023-01-22T14:49:30.766Z,5.33
2023-01-22T14:51:57.812Z,4.57
2023-01-22T14:54:25.230Z,5.20
2023-01-22T14:56:51.755Z,5.40
2023-01-22T14:59:20.556Z,4.50
2023-01-22T15:01:47.286Z,5.13
2023-01-22T15:04:14.115Z,4.90
2023-01-22T15:06:40.541Z,4.73
2023-01-22T15:09:06.936Z,5.67
2023-01-22T15:11:33.481Z,5.17
2023-01-22T15:14:00.071Z,5.23
2023-01-22T15:16:26.620Z,4.53
2023-01-22T15:18:56.499Z,4.53
2023-01-22T15:21:23.385Z,5.03
2023-01-22T15:23:50.177Z,5.07
2023-01-22T15:26:24.602Z,4.43
2023-01-22T15:28:51.076Z,4.90
2023-01-22T15:31:17.558Z,5.10
2023-01-22T15:33:44.152Z,4.47
2023-01-22T15:36:10.584Z,4.77
2023-01-22T15:38:37.044Z,4.40
2023-01-22T15:41:04.463Z,4.17
2023-01-22T15:43:30.919Z,4.03
2023-01-22T15:45:57.420Z,4.50
2023-01-22T15:48:23.864Z,4.70
2023-01-22T15:50:50.503Z,4.40
2023-01-22T15:53:16.909Z,4.73
2023-01-22T15:55:50.067Z,4.80
2023-01-22T15:58:16.581Z,4.33
2023-01-22T16:00:43.035Z,3.90
2023-01-22T16:03:09.489Z,4.40
2023-01-22T16:05:35.965Z,4.60
2023-01-22T16:08:03.320Z,4.23
2023-01-22T16:10:29.746Z,4.60
2023-01-22T16:12:56.245Z,4.40
2023-01-22T16:15:22.746Z,4.07
2023-01-22T16:17:49.212Z,4.00
2023-01-22T16:20:16.111Z,5.07
2023-01-22T16:22:45.447Z,4.37
2023-01-22T16:25:12.090Z,4.87
2023-01-22T16:27:39.075Z,4.90
2023-01-22T16:30:07.401Z,5.20
2023-01-22T16:32:37.437Z,4.43
2023-01-22T16:35:04.677Z,5.10
2023-01-22T16:37:31.320Z,4.90
2023-01-22T16:39:57.712Z,5.43
2023-01-22T16:42:24.147Z,5.50
2023-01-22T16:44:50.700Z,5.40
2023-01-22T16:47:17.206Z,5.87
2023-01-22T16:49:43.838Z,5.33
2023-01-22T16:52:21.806Z,5.90
2023-01-22T16:54:49.377Z,5.00
2023-01-22T16:57:16.163Z,5.40
2023-01-22T16:59:42.684Z,5.30
2023-01-22T17:02:14.814Z,5.20
2023-01-22T17:04:41.303Z,5.97
2023-01-22T17:07:07.733Z,5.00
2023-01-22T17:09:36.185Z,4.90
2023-01-22T17:12:04.559Z,5.37
2023-01-22T17:14:33.943Z,6.17
2023-01-22T17:17:00.377Z,4.70
2023-01-22T17:19:27.300Z,4.63
2023-01-22T17:22:01.753Z,5.23
2023-01-22T17:24:29.525Z,4.67
2023-01-22T17:26:58.301Z,5.10
2023-01-22T17:29:24.996Z,5.07
2023-01-22T17:31:52.339Z,4.67
2023-01-22T17:34:18.880Z,5.43
2023-01-22T17:36:45.493Z,4.77
2023-01-22T17:39:15.179Z,5.10
2023-01-22T17:41:41.739Z,5.03
2023-01-22T17:44:17.551Z,5.50
2023-01-22T17:46:44.162Z,5.37
2023-01-22T17:49:11.358Z,4.53
2023-01-22T17:51:38.679Z,5.10
2023-01-22T17:54:06.066Z,5.10
2023-01-22T17:56:35.468Z,4.30
2023-01-22T17:59:04.389Z,4.93
2023-01-22T18:01:33.027Z,4.30
2023-01-22T18:04:01.727Z,4.87
2023-01-22T18:06:28.615Z,5.13
2023-01-22T18:08:55.548Z,4.93
2023-01-22T18:11:26.431Z,4.43
2023-01-22T18:13:58.264Z,5.00
2023-01-22T18:16:27.449Z,4.93
2023-01-22T18:18:54.536Z,4.90
2023-01-22T18:21:21.973Z,6.10
2023-01-22T18:23:49.381Z,5.10
2023-01-22T18:26:19.802Z,4.50
2023-01-22T18:28:46.287Z,4.87
2023-01-22T18:31:15.058Z,5.23
2023-01-22T18:33:44.367Z,5.80
2023-01-22T18:36:14.048Z,5.60
2023-01-22T18:38:41.116Z,6.07
2023-01-22T18:41:16.811Z,5.87
2023-01-22T18:43:46.893Z,5.43
2023-01-22T18:46:13.905Z,6.07
2023-01-22T18:48:41.601Z,6.50
2023-01-22T18:51:10.606Z,4.90
2023-01-22T18:53:37.659Z,5.77
2023-01-22T18:56:06.527Z,5.20
2023-01-22T18:58:36.002Z,5.87
2023-01-22T19:01:15.708Z,6.00
2023-01-22T19:03:44.032Z,5.90
2023-01-22T19:06:14.191Z,5.77
2023-01-22T19:08:41.800Z,5.93
2023-01-22T19:11:08.673Z,5.90
2023-01-22T19:13:35.553Z,5.33
2023-01-22T19:16:04.606Z,5.67
2023-01-22T19:18:31.513Z,5.63
2023-01-22T19:21:06.917Z,5.80
2023-01-22T19:23:34.708Z,6.37
2023-01-22T19:26:05.238Z,6.07
2023-01-22T19:28:31.648Z,6.03
2023-01-22T19:30:58.215Z,5.23
2023-01-22T19:33:27.853Z,5.87
2023-01-22T19:35:55.835Z,4.83
2023-01-22T19:38:22.606Z,5.13
2023-01-22T19:40:49.439Z,4.87
2023-01-22T19:43:15.918Z,4.30
2023-01-22T19:45:42.330Z,4.63
2023-01-22T19:48:08.780Z,5.17
2023-01-22T19:50:35.471Z,5.67
2023-01-22T19:53:02.215Z,5.50
2023-01-22T19:55:29.692Z,5.30
2023-01-22T19:57:56.238Z,6.33
2023-01-22T20:00:23.016Z,5.20
2023-01-22T20:02:49.472Z,7.00
2023-01-22T20:05:17.529Z,5.67
2023-01-22T20:07:45.358Z,5.60
2023-01-22T20:10:15.405Z,5.80
2023-01-22T20:12:43.291Z,5.10
2023-01-22T20:15:10.171Z,5.80
2023-01-22T20:17:37.166Z,5.07
2023-01-22T20:20:07.006Z,5.23
2023-01-22T20:22:33.720Z,5.17
2023-01-22T20:25:00.248Z,5.10
2023-01-22T20:27:26.685Z,5.40
2023-01-22T20:29:53.129Z,5.67
2023-01-22T20:32:20.652Z,5.53
2023-01-22T20:34:48.904Z,5.20
2023-01-22T20:37:15.424Z,5.47
2023-01-22T20:39:42.126Z,5.70
2023-01-22T20:42:08.590Z,5.63
2023-01-22T20:44:35.731Z,5.47
2023-01-22T20:47:02.135Z,5.97
2023-01-22T20:49:29.078Z,5.43
2023-01-22T20:51:55.744Z,5.67
2023-01-22T20:54:22.420Z,5.40
2023-01-22T20:56:50.317Z,4.63
2023-01-22T20:59:18.196Z,5.13
2023-01-22T21:01:45.016Z,5.10
2023-01-22T21:04:11.790Z,5.23
2023-01-22T21:06:39.439Z,5.23
2023-01-22T21:09:07.222Z,4.50
2023-01-22T21:11:35.416Z,4.70
2023-01-22T21:14:05.021Z,5.13
2023-01-22T21:16:34.277Z,4.60
2023-01-22T21:19:03.060Z,4.70
2023-01-22T21:21:30.947Z,5.00
2023-01-22T21:23:58.110Z,4.63
2023-01-22T21:26:27.557Z,4.47
2023-01-22T21:28:57.435Z,4.40
2023-01-22T21:31:25.152Z,5.03
2023-01-22T21:34:02.453Z,4.10
2023-01-22T21:36:44.925Z,4.97
2023-01-22T21:39:15.120Z,4.33
2023-01-22T21:41:42.348Z,5.33
2023-01-22T21:44:32.134Z,5.00
2023-01-22T21:46:58.752Z,5.10
2023-01-22T21:49:25.187Z,5.40
2023-01-22T21:52:05.632Z,5.10
2023-01-22T21:54:38.101Z,5.20
2023-01-22T21:57:06.231Z,5.23
2023-01-22T21:59:32.765Z,4.80
2023-01-22T22:01:59.394Z,5.93
2023-01-22T22:04:26.793Z,5.70
2023-01-22T22:06:53.641Z,4.97
2023-01-22T22:09:22.712Z,5.83
2023-01-22T22:11:49.471Z,5.47
2023-01-22T22:14:17.705Z,5.37
2023-01-22T22:16:44.612Z,6.13
2023-01-22T22:19:11.666Z,5.83
2023-01-22T22:21:38.459Z,5.83
2023-01-22T22:24:06.041Z,6.00
2023-01-22T22:26:33.071Z,6.17
2023-01-22T22:28:59.674Z,5.93
2023-01-22T22:31:26.121Z,5.97
2023-01-22T22:33:54.317Z,5.73
2023-01-22T22:36:25.782Z,5.70
2023-01-22T22:38:52.823Z,5.67
2023-01-22T22:41:21.927Z,5.73
2023-01-22T22:43:51.876Z,6.50
2023-01-22T22:46:20.846Z,5.70
2023-01-22T22:48:48.417Z,6.07
2023-01-22T22:51:26.723Z,6.00
2023-01-22T22:53:58.792Z,6.30
2023-01-22T22:56:26.773Z,5.77
2023-01-22T22:58:53.259Z,5.57
2023-01-22T23:01:21.724Z,5.57
2023-01-22T23:03:48.870Z,5.93
2023-01-22T23:06:18.133Z,5.97
2023-01-22T23:08:47.334Z,6.03
2023-01-22T23:11:15.523Z,5.90
2023-01-22T23:13:46.169Z,6.10
2023-01-22T23:16:14.329Z,6.00
2023-01-22T23:18:40.845Z,5.33
2023-01-22T23:21:12.192Z,5.60
2023-01-22T23:23:39.209Z,6.07
2023-01-22T23:26:08.119Z,5.53
2023-01-22T23:28:34.601Z,5.57
2023-01-22T23:31:05.795Z,6.00
2023-01-22T23:33:32.488Z,5.70
2023-01-22T23:36:03.572Z,5.97
2023-01-22T23:38:30.111Z,5.73
2023-01-22T23:41:03.705Z,5.60
2023-01-22T23:43:30.292Z,5.43
2023-01-22T23:45:56.715Z,5.40
2023-01-22T23:48:23.309Z,5.07
2023-01-22T23:50:51.661Z,6.30
2023-01-22T23:53:18.299Z,5.03
2023-01-22T23:55:44.760Z,5.30
2023-01-22T23:58:11.269Z,5.40
